sensor_id;sensor_type;location;lat;lon;timestamp;P1;durP1;ratioP1;P2;durP2;ratioP2
16442;SDS011;8331;51.654;14.376;2023-04-06T00:00:18;12.50;;;6.90;;
16442;SDS011;8331;51.654;14.376;2023-04-06T00:02:44;7.63;;;6.40;;
16442;SDS011;8331;51.654;14.376;2023-04-06T00:05:11;7.30;;;6.50;;
16442;SDS011;8331;51.654;14.376;2023-04-06T00:07:38;10.53;;;6.60;;
16442;SDS011;8331;51.654;14.376;2023-04-06T00:10:05;8.67;;;6.70;;
16442;SDS011;8331;51.654;14.376;2023-04-06T00:12:32;6.60;;;6.00;;
16442;SDS011;8331;51.654;14.376;2023-04-06T00:14:58;6.90;;;5.97;;
16442;SDS011;8331;51.654;14.376;2023-04-06T00:17:25;6.40;;;5.80;;
16442;SDS011;8331;51.654;14.376;2023-04-06T00:19:52;6.80;;;6.20;;
16442;SDS011;8331;51.654;14.376;2023-04-06T00:22:19;6.80;;;6.30;;
16442;SDS011;8331;51.654;14.376;2023-04-06T00:24:45;6.80;;;6.20;;
16442;SDS011;8331;51.654;14.376;2023-04-06T00:27:12;7.50;;;5.83;;
16442;SDS011;8331;51.654;14.376;2023-04-06T00:29:39;7.20;;;6.20;;
16442;SDS011;8331;51.654;14.376;2023-04-06T00:32:06;6.57;;;5.87;;
16442;SDS011;8331;51.654;14.376;2023-04-06T00:34:33;6.50;;;5.90;;
16442;SDS011;8331;51.654;14.376;2023-04-06T00:36:59;9.93;;;7.63;;
16442;SDS011;8331;51.654;14.376;2023-04-06T00:39:26;7.30;;;6.60;;
16442;SDS011;8331;51.654;14.376;2023-04-06T00:41:53;9.47;;;6.80;;
16442;SDS011;8331;51.654;14.376;2023-04-06T00:44:21;8.37;;;6.67;;
16442;SDS011;8331;51.654;14.376;2023-04-06T00:46:47;6.17;;;5.57;;
16442;SDS011;8331;51.654;14.376;2023-04-06T00:49:14;6.33;;;5.73;;
16442;SDS011;8331;51.654;14.376;2023-04-06T00:51:41;7.60;;;5.50;;
16442;SDS011;8331;51.654;14.376;2023-04-06T00:54:08;7.33;;;6.17;;
16442;SDS011;8331;51.654;14.376;2023-04-06T00:56:35;7.63;;;6.80;;
16442;SDS011;8331;51.654;14.376;2023-04-06T00:59:02;6.33;;;5.67;;
16442;SDS011;8331;51.654;14.376;2023-04-06T01:01:30;6.97;;;5.70;;
16442;SDS011;8331;51.654;14.376;2023-04-06T01:04:04;6.40;;;5.80;;
16442;SDS011;8331;51.654;14.376;2023-04-06T01:06:37;6.67;;;6.17;;
16442;SDS011;8331;51.654;14.376;2023-04-06T01:09:04;7.10;;;6.10;;
16442;SDS011;8331;51.654;14.376;2023-04-06T01:11:31;7.13;;;6.30;;
16442;SDS011;8331;51.654;14.376;2023-04-06T01:14:01;9.27;;;6.30;;
16442;SDS011;8331;51.654;14.376;2023-04-06T01:16:45;8.43;;;6.60;;
16442;SDS011;8331;51.654;14.376;2023-04-06T01:19:15;6.80;;;6.20;;
16442;SDS011;8331;51.654;14.376;2023-04-06T01:21:49;6.67;;;6.07;;
16442;SDS011;8331;51.654;14.376;2023-04-06T01:24:19;6.53;;;5.80;;
16442;SDS011;8331;51.654;14.376;2023-04-06T01:27:00;6.30;;;5.70;;
16442;SDS011;8331;51.654;14.376;2023-04-06T01:29:38;6.50;;;5.97;;
16442;SDS011;8331;51.654;14.376;2023-04-06T01:32:09;9.23;;;6.43;;
16442;SDS011;8331;51.654;14.376;2023-04-06T01:34:44;7.13;;;5.93;;
16442;SDS011;8331;51.654;14.376;2023-04-06T01:37:11;6.53;;;5.90;;
16442;SDS011;8331;51.654;14.376;2023-04-06T01:39:38;6.00;;;5.40;;
16442;SDS011;8331;51.654;14.376;2023-04-06T01:42:06;6.40;;;5.80;;
16442;SDS011;8331;51.654;14.376;2023-04-06T01:44:35;6.23;;;5.00;;
16442;SDS011;8331;51.654;14.376;2023-04-06T01:47:08;6.00;;;5.50;;
16442;SDS011;8331;51.654;14.376;2023-04-06T01:49:35;7.27;;;5.70;;
16442;SDS011;8331;51.654;14.376;2023-04-06T01:52:02;5.93;;;5.43;;
16442;SDS011;8331;51.654;14.376;2023-04-06T01:54:30;6.57;;;5.80;;
16442;SDS011;8331;51.654;14.376;2023-04-06T01:57:10;6.93;;;5.93;;
16442;SDS011;8331;51.654;14.376;2023-04-06T01:59:52;5.90;;;5.30;;
16442;SDS011;8331;51.654;14.376;2023-04-06T02:02:28;8.87;;;6.20;;
16442;SDS011;8331;51.654;14.376;2023-04-06T02:05:02;8.07;;;6.63;;
16442;SDS011;8331;51.654;14.376;2023-04-06T02:07:29;7.93;;;7.13;;
16442;SDS011;8331;51.654;14.376;2023-04-06T02:09:56;7.13;;;6.43;;
16442;SDS011;8331;51.654;14.376;2023-04-06T02:12:31;7.00;;;6.30;;
16442;SDS011;8331;51.654;14.376;2023-04-06T02:14:59;7.07;;;6.40;;
16442;SDS011;8331;51.654;14.376;2023-04-06T02:17:26;6.97;;;6.27;;
16442;SDS011;8331;51.654;14.376;2023-04-06T02:19:52;7.70;;;6.90;;
16442;SDS011;8331;51.654;14.376;2023-04-06T02:22:19;7.97;;;6.87;;
16442;SDS011;8331;51.654;14.376;2023-04-06T02:24:46;7.37;;;6.67;;
16442;SDS011;8331;51.654;14.376;2023-04-06T02:27:13;7.47;;;6.60;;
16442;SDS011;8331;51.654;14.376;2023-04-06T02:29:40;10.60;;;7.00;;
16442;SDS011;8331;51.654;14.376;2023-04-06T02:32:07;8.20;;;6.90;;
16442;SDS011;8331;51.654;14.376;2023-04-06T02:34:34;6.90;;;6.17;;
16442;SDS011;8331;51.654;14.376;2023-04-06T02:37:01;8.10;;;6.60;;
16442;SDS011;8331;51.654;14.376;2023-04-06T02:39:29;6.80;;;6.13;;
16442;SDS011;8331;51.654;14.376;2023-04-06T02:41:55;6.57;;;6.07;;
16442;SDS011;8331;51.654;14.376;2023-04-06T02:44:25;8.47;;;6.20;;
16442;SDS011;8331;51.654;14.376;2023-04-06T02:46:51;7.83;;;6.23;;
16442;SDS011;8331;51.654;14.376;2023-04-06T02:49:20;7.07;;;6.57;;
16442;SDS011;8331;51.654;14.376;2023-04-06T02:51:48;6.53;;;5.93;;
16442;SDS011;8331;51.654;14.376;2023-04-06T02:54:22;6.87;;;6.30;;
16442;SDS011;8331;51.654;14.376;2023-04-06T02:56:49;6.90;;;5.77;;
16442;SDS011;8331;51.654;14.376;2023-04-06T02:59:17;6.53;;;6.03;;
16442;SDS011;8331;51.654;14.376;2023-04-06T03:01:53;7.03;;;6.43;;
16442;SDS011;8331;51.654;14.376;2023-04-06T03:04:20;7.10;;;6.50;;
16442;SDS011;8331;51.654;14.376;2023-04-06T03:06:50;6.70;;;6.00;;
16442;SDS011;8331;51.654;14.376;2023-04-06T03:09:27;6.80;;;6.20;;
16442;SDS011;8331;51.654;14.376;2023-04-06T03:11:54;6.10;;;5.57;;
16442;SDS011;8331;51.654;14.376;2023-04-06T03:14:23;6.50;;;5.87;;
16442;SDS011;8331;51.654;14.376;2023-04-06T03:16:49;6.33;;;5.83;;
16442;SDS011;8331;51.654;14.376;2023-04-06T03:19:19;6.27;;;5.67;;
16442;SDS011;8331;51.654;14.376;2023-04-06T03:21:46;5.90;;;5.40;;
16442;SDS011;8331;51.654;14.376;2023-04-06T03:24:15;6.03;;;5.47;;
16442;SDS011;8331;51.654;14.376;2023-04-06T03:26:42;6.17;;;5.67;;
16442;SDS011;8331;51.654;14.376;2023-04-06T03:29:09;6.30;;;5.67;;
16442;SDS011;8331;51.654;14.376;2023-04-06T03:31:36;6.60;;;5.90;;
16442;SDS011;8331;51.654;14.376;2023-04-06T03:34:23;6.37;;;5.83;;
16442;SDS011;8331;51.654;14.376;2023-04-06T03:36:50;6.30;;;5.53;;
16442;SDS011;8331;51.654;14.376;2023-04-06T03:39:36;6.57;;;5.90;;
16442;SDS011;8331;51.654;14.376;2023-04-06T03:42:03;6.37;;;5.87;;
16442;SDS011;8331;51.654;14.376;2023-04-06T03:44:40;6.93;;;6.23;;
16442;SDS011;8331;51.654;14.376;2023-04-06T03:47:07;6.83;;;6.27;;
16442;SDS011;8331;51.654;14.376;2023-04-06T03:49:34;6.80;;;6.13;;
16442;SDS011;8331;51.654;14.376;2023-04-06T03:52:04;6.23;;;5.73;;
16442;SDS011;8331;51.654;14.376;2023-04-06T03:54:31;6.73;;;6.13;;
16442;SDS011;8331;51.654;14.376;2023-04-06T03:56:57;6.67;;;5.80;;
16442;SDS011;8331;51.654;14.376;2023-04-06T03:59:25;6.90;;;6.20;;
16442;SDS011;8331;51.654;14.376;2023-04-06T04:01:52;6.90;;;6.40;;
16442;SDS011;8331;51.654;14.376;2023-04-06T04:04:19;7.10;;;6.50;;
16442;SDS011;8331;51.654;14.376;2023-04-06T04:06:46;8.23;;;6.30;;
16442;SDS011;8331;51.654;14.376;2023-04-06T04:09:13;7.07;;;6.00;;
16442;SDS011;8331;51.654;14.376;2023-04-06T04:11:39;6.47;;;5.93;;
16442;SDS011;8331;51.654;14.376;2023-04-06T04:14:06;7.73;;;7.00;;
16442;SDS011;8331;51.654;14.376;2023-04-06T04:16:33;7.30;;;6.70;;
16442;SDS011;8331;51.654;14.376;2023-04-06T04:19:00;6.80;;;6.20;;
16442;SDS011;8331;51.654;14.376;2023-04-06T04:21:29;10.50;;;7.70;;
16442;SDS011;8331;51.654;14.376;2023-04-06T04:23:58;8.47;;;7.77;;
16442;SDS011;8331;51.654;14.376;2023-04-06T04:26:25;9.10;;;7.20;;
16442;SDS011;8331;51.654;14.376;2023-04-06T04:28:52;8.27;;;7.47;;
16442;SDS011;8331;51.654;14.376;2023-04-06T04:31:19;11.03;;;8.30;;
16442;SDS011;8331;51.654;14.376;2023-04-06T04:33:52;9.07;;;8.17;;
16442;SDS011;8331;51.654;14.376;2023-04-06T04:36:27;9.00;;;8.10;;
16442;SDS011;8331;51.654;14.376;2023-04-06T04:38:56;10.17;;;8.23;;
16442;SDS011;8331;51.654;14.376;2023-04-06T04:41:23;8.13;;;7.43;;
16442;SDS011;8331;51.654;14.376;2023-04-06T04:43:50;9.07;;;8.20;;
16442;SDS011;8331;51.654;14.376;2023-04-06T04:46:21;9.47;;;8.57;;
16442;SDS011;8331;51.654;14.376;2023-04-06T04:48:48;9.43;;;8.63;;
16442;SDS011;8331;51.654;14.376;2023-04-06T04:51:15;11.23;;;9.90;;
16442;SDS011;8331;51.654;14.376;2023-04-06T04:54:02;10.00;;;8.67;;
16442;SDS011;8331;51.654;14.376;2023-04-06T04:56:30;8.83;;;7.97;;
16442;SDS011;8331;51.654;14.376;2023-04-06T04:59:17;7.70;;;7.00;;
16442;SDS011;8331;51.654;14.376;2023-04-06T05:01:51;7.60;;;6.90;;
16442;SDS011;8331;51.654;14.376;2023-04-06T05:04:28;8.80;;;7.90;;
16442;SDS011;8331;51.654;14.376;2023-04-06T05:07:05;8.13;;;7.43;;
16442;SDS011;8331;51.654;14.376;2023-04-06T05:09:33;9.83;;;7.67;;
16442;SDS011;8331;51.654;14.376;2023-04-06T05:12:00;8.83;;;7.47;;
16442;SDS011;8331;51.654;14.376;2023-04-06T05:14:31;9.53;;;7.87;;
16442;SDS011;8331;51.654;14.376;2023-04-06T05:17:00;8.30;;;7.53;;
16442;SDS011;8331;51.654;14.376;2023-04-06T05:19:28;9.33;;;8.50;;
16442;SDS011;8331;51.654;14.376;2023-04-06T05:21:54;9.57;;;8.67;;
16442;SDS011;8331;51.654;14.376;2023-04-06T05:24:21;8.73;;;7.93;;
16442;SDS011;8331;51.654;14.376;2023-04-06T05:26:48;9.47;;;8.23;;
16442;SDS011;8331;51.654;14.376;2023-04-06T05:29:21;9.83;;;7.67;;
16442;SDS011;8331;51.654;14.376;2023-04-06T05:31:48;9.73;;;8.20;;
16442;SDS011;8331;51.654;14.376;2023-04-06T05:34:15;9.23;;;8.30;;
16442;SDS011;8331;51.654;14.376;2023-04-06T05:36:42;9.80;;;8.53;;
16442;SDS011;8331;51.654;14.376;2023-04-06T05:39:16;8.80;;;7.90;;
16442;SDS011;8331;51.654;14.376;2023-04-06T05:41:48;9.03;;;8.13;;
16442;SDS011;8331;51.654;14.376;2023-04-06T05:44:19;10.10;;;8.67;;
16442;SDS011;8331;51.654;14.376;2023-04-06T05:46:53;8.87;;;7.97;;
16442;SDS011;8331;51.654;14.376;2023-04-06T05:49:20;12.50;;;8.47;;
16442;SDS011;8331;51.654;14.376;2023-04-06T05:51:47;8.73;;;7.30;;
16442;SDS011;8331;51.654;14.376;2023-04-06T05:54:14;10.47;;;8.50;;
16442;SDS011;8331;51.654;14.376;2023-04-06T05:56:41;9.80;;;8.90;;
16442;SDS011;8331;51.654;14.376;2023-04-06T05:59:10;10.63;;;9.53;;
16442;SDS011;8331;51.654;14.376;2023-04-06T06:01:38;11.27;;;9.07;;
16442;SDS011;8331;51.654;14.376;2023-04-06T06:04:05;9.50;;;8.50;;
16442;SDS011;8331;51.654;14.376;2023-04-06T06:06:34;9.93;;;8.40;;
16442;SDS011;8331;51.654;14.376;2023-04-06T06:09:12;9.70;;;8.80;;
16442;SDS011;8331;51.654;14.376;2023-04-06T06:11:45;9.67;;;8.80;;
16442;SDS011;8331;51.654;14.376;2023-04-06T06:14:15;10.47;;;8.87;;
16442;SDS011;8331;51.654;14.376;2023-04-06T06:16:42;11.23;;;9.20;;
16442;SDS011;8331;51.654;14.376;2023-04-06T06:19:11;10.83;;;9.00;;
16442;SDS011;8331;51.654;14.376;2023-04-06T06:21:39;11.77;;;8.70;;
16442;SDS011;8331;51.654;14.376;2023-04-06T06:24:06;9.20;;;8.33;;
16442;SDS011;8331;51.654;14.376;2023-04-06T06:26:33;9.67;;;8.67;;
16442;SDS011;8331;51.654;14.376;2023-04-06T06:29:04;9.90;;;8.53;;
16442;SDS011;8331;51.654;14.376;2023-04-06T06:31:34;9.53;;;8.53;;
16442;SDS011;8331;51.654;14.376;2023-04-06T06:34:02;10.07;;;8.10;;
16442;SDS011;8331;51.654;14.376;2023-04-06T06:36:30;10.03;;;8.93;;
16442;SDS011;8331;51.654;14.376;2023-04-06T06:38:58;10.50;;;8.10;;
16442;SDS011;8331;51.654;14.376;2023-04-06T06:41:25;10.63;;;8.63;;
16442;SDS011;8331;51.654;14.376;2023-04-06T06:43:53;10.63;;;8.80;;
16442;SDS011;8331;51.654;14.376;2023-04-06T06:46:20;10.03;;;8.90;;
16442;SDS011;8331;51.654;14.376;2023-04-06T06:48:47;8.93;;;8.03;;
16442;SDS011;8331;51.654;14.376;2023-04-06T06:51:13;11.07;;;8.83;;
16442;SDS011;8331;51.654;14.376;2023-04-06T06:53:40;9.53;;;8.63;;
16442;SDS011;8331;51.654;14.376;2023-04-06T06:56:07;12.17;;;8.57;;
16442;SDS011;8331;51.654;14.376;2023-04-06T06:58:34;9.77;;;8.77;;
16442;SDS011;8331;51.654;14.376;2023-04-06T07:01:00;9.97;;;8.90;;
16442;SDS011;8331;51.654;14.376;2023-04-06T07:03:29;9.80;;;8.90;;
16442;SDS011;8331;51.654;14.376;2023-04-06T07:05:56;9.73;;;8.83;;
16442;SDS011;8331;51.654;14.376;2023-04-06T07:08:24;14.00;;;8.90;;
16442;SDS011;8331;51.654;14.376;2023-04-06T07:10:51;12.90;;;9.27;;
16442;SDS011;8331;51.654;14.376;2023-04-06T07:13:27;10.43;;;9.30;;
16442;SDS011;8331;51.654;14.376;2023-04-06T07:15:56;13.23;;;9.93;;
16442;SDS011;8331;51.654;14.376;2023-04-06T07:18:23;13.50;;;9.20;;
16442;SDS011;8331;51.654;14.376;2023-04-06T07:20:49;10.77;;;9.40;;
16442;SDS011;8331;51.654;14.376;2023-04-06T07:23:17;9.97;;;8.93;;
16442;SDS011;8331;51.654;14.376;2023-04-06T07:25:44;11.53;;;8.10;;
16442;SDS011;8331;51.654;14.376;2023-04-06T07:28:11;10.27;;;8.97;;
16442;SDS011;8331;51.654;14.376;2023-04-06T07:30:38;8.43;;;7.53;;
16442;SDS011;8331;51.654;14.376;2023-04-06T07:33:07;8.93;;;8.07;;
16442;SDS011;8331;51.654;14.376;2023-04-06T07:35:35;8.37;;;7.33;;
16442;SDS011;8331;51.654;14.376;2023-04-06T07:38:04;7.67;;;6.80;;
16442;SDS011;8331;51.654;14.376;2023-04-06T07:40:31;9.23;;;7.27;;
16442;SDS011;8331;51.654;14.376;2023-04-06T07:42:59;7.30;;;6.70;;
16442;SDS011;8331;51.654;14.376;2023-04-06T07:45:25;7.00;;;6.40;;
16442;SDS011;8331;51.654;14.376;2023-04-06T07:47:53;7.63;;;6.93;;
16442;SDS011;8331;51.654;14.376;2023-04-06T07:50:20;7.07;;;6.47;;
16442;SDS011;8331;51.654;14.376;2023-04-06T07:52:47;8.50;;;6.60;;
16442;SDS011;8331;51.654;14.376;2023-04-06T07:55:14;6.77;;;6.17;;
16442;SDS011;8331;51.654;14.376;2023-04-06T07:57:41;7.37;;;6.67;;
16442;SDS011;8331;51.654;14.376;2023-04-06T08:00:08;7.23;;;5.73;;
16442;SDS011;8331;51.654;14.376;2023-04-06T08:02:38;5.90;;;5.33;;
16442;SDS011;8331;51.654;14.376;2023-04-06T08:05:06;6.13;;;5.50;;
16442;SDS011;8331;51.654;14.376;2023-04-06T08:07:33;5.30;;;4.90;;
16442;SDS011;8331;51.654;14.376;2023-04-06T08:10:00;6.03;;;4.90;;
16442;SDS011;8331;51.654;14.376;2023-04-06T08:12:26;5.27;;;4.80;;
16442;SDS011;8331;51.654;14.376;2023-04-06T08:14:53;7.80;;;4.70;;
16442;SDS011;8331;51.654;14.376;2023-04-06T08:17:19;4.70;;;4.30;;
16442;SDS011;8331;51.654;14.376;2023-04-06T08:19:46;4.67;;;4.30;;
16442;SDS011;8331;51.654;14.376;2023-04-06T08:22:14;5.10;;;4.60;;
16442;SDS011;8331;51.654;14.376;2023-04-06T08:24:41;4.60;;;4.20;;
16442;SDS011;8331;51.654;14.376;2023-04-06T08:27:07;6.07;;;4.53;;
16442;SDS011;8331;51.654;14.376;2023-04-06T08:29:34;4.43;;;4.07;;
16442;SDS011;8331;51.654;14.376;2023-04-06T08:32:01;4.67;;;4.27;;
16442;SDS011;8331;51.654;14.376;2023-04-06T08:34:34;3.63;;;3.33;;
16442;SDS011;8331;51.654;14.376;2023-04-06T08:37:00;3.83;;;3.40;;
16442;SDS011;8331;51.654;14.376;2023-04-06T08:39:27;3.57;;;3.37;;
16442;SDS011;8331;51.654;14.376;2023-04-06T08:41:54;2.97;;;2.77;;
16442;SDS011;8331;51.654;14.376;2023-04-06T08:44:26;4.00;;;3.63;;
16442;SDS011;8331;51.654;14.376;2023-04-06T08:46:54;3.33;;;3.03;;
16442;SDS011;8331;51.654;14.376;2023-04-06T08:49:21;3.20;;;3.00;;
16442;SDS011;8331;51.654;14.376;2023-04-06T08:51:48;2.93;;;2.73;;
16442;SDS011;8331;51.654;14.376;2023-04-06T08:54:15;3.10;;;2.80;;
16442;SDS011;8331;51.654;14.376;2023-04-06T08:56:42;3.00;;;2.80;;
16442;SDS011;8331;51.654;14.376;2023-04-06T08:59:11;2.80;;;2.60;;
16442;SDS011;8331;51.654;14.376;2023-04-06T09:01:41;3.67;;;2.20;;
16442;SDS011;8331;51.654;14.376;2023-04-06T09:04:10;3.30;;;3.00;;
16442;SDS011;8331;51.654;14.376;2023-04-06T09:06:39;2.93;;;2.73;;
16442;SDS011;8331;51.654;14.376;2023-04-06T09:09:08;3.30;;;2.67;;
16442;SDS011;8331;51.654;14.376;2023-04-06T09:11:46;2.80;;;2.60;;
16442;SDS011;8331;51.654;14.376;2023-04-06T09:14:14;4.37;;;2.70;;
16442;SDS011;8331;51.654;14.376;2023-04-06T09:16:43;3.03;;;2.83;;
16442;SDS011;8331;51.654;14.376;2023-04-06T09:19:11;3.03;;;2.80;;
16442;SDS011;8331;51.654;14.376;2023-04-06T09:21:38;15.87;;;13.07;;
16442;SDS011;8331;51.654;14.376;2023-04-06T09:24:06;3.30;;;3.00;;
16442;SDS011;8331;51.654;14.376;2023-04-06T09:26:43;3.20;;;2.70;;
16442;SDS011;8331;51.654;14.376;2023-04-06T09:29:10;4.33;;;2.97;;
16442;SDS011;8331;51.654;14.376;2023-04-06T09:31:48;4.13;;;2.90;;
16442;SDS011;8331;51.654;14.376;2023-04-06T09:34:23;3.27;;;2.80;;
16442;SDS011;8331;51.654;14.376;2023-04-06T09:36:50;3.40;;;3.10;;
16442;SDS011;8331;51.654;14.376;2023-04-06T09:39:20;3.20;;;3.00;;
16442;SDS011;8331;51.654;14.376;2023-04-06T09:41:49;2.97;;;2.53;;
16442;SDS011;8331;51.654;14.376;2023-04-06T09:44:16;4.33;;;2.83;;
16442;SDS011;8331;51.654;14.376;2023-04-06T09:46:43;3.30;;;2.97;;
16442;SDS011;8331;51.654;14.376;2023-04-06T09:49:13;3.53;;;2.90;;
16442;SDS011;8331;51.654;14.376;2023-04-06T09:51:45;3.17;;;2.80;;
16442;SDS011;8331;51.654;14.376;2023-04-06T09:54:18;3.17;;;2.90;;
16442;SDS011;8331;51.654;14.376;2023-04-06T09:59:14;3.60;;;2.53;;
16442;SDS011;8331;51.654;14.376;2023-04-06T10:01:43;2.80;;;2.60;;
16442;SDS011;8331;51.654;14.376;2023-04-06T10:07:09;3.33;;;2.90;;
16442;SDS011;8331;51.654;14.376;2023-04-06T10:09:38;2.80;;;2.60;;
16442;SDS011;8331;51.654;14.376;2023-04-06T10:12:05;2.73;;;2.53;;
16442;SDS011;8331;51.654;14.376;2023-04-06T10:14:33;2.63;;;2.40;;
16442;SDS011;8331;51.654;14.376;2023-04-06T10:17:01;2.40;;;2.30;;
16442;SDS011;8331;51.654;14.376;2023-04-06T10:19:29;2.53;;;2.33;;
16442;SDS011;8331;51.654;14.376;2023-04-06T10:21:57;3.10;;;2.90;;
16442;SDS011;8331;51.654;14.376;2023-04-06T10:24:25;3.17;;;2.97;;
16442;SDS011;8331;51.654;14.376;2023-04-06T10:26:58;2.17;;;2.07;;
16442;SDS011;8331;51.654;14.376;2023-04-06T10:29:25;2.87;;;2.67;;
16442;SDS011;8331;51.654;14.376;2023-04-06T10:31:51;2.63;;;2.43;;
16442;SDS011;8331;51.654;14.376;2023-04-06T10:34:18;3.50;;;2.20;;
16442;SDS011;8331;51.654;14.376;2023-04-06T10:36:45;2.60;;;2.40;;
16442;SDS011;8331;51.654;14.376;2023-04-06T10:39:11;2.93;;;2.67;;
16442;SDS011;8331;51.654;14.376;2023-04-06T10:41:42;2.60;;;2.37;;
16442;SDS011;8331;51.654;14.376;2023-04-06T10:44:17;2.27;;;2.10;;
16442;SDS011;8331;51.654;14.376;2023-04-06T10:46:51;2.67;;;2.47;;
16442;SDS011;8331;51.654;14.376;2023-04-06T10:49:18;2.23;;;2.10;;
16442;SDS011;8331;51.654;14.376;2023-04-06T10:51:45;2.27;;;2.17;;
16442;SDS011;8331;51.654;14.376;2023-04-06T10:54:11;3.47;;;2.40;;
16442;SDS011;8331;51.654;14.376;2023-04-06T10:56:39;2.67;;;2.47;;
16442;SDS011;8331;51.654;14.376;2023-04-06T10:59:06;2.80;;;2.60;;
16442;SDS011;8331;51.654;14.376;2023-04-06T11:01:34;2.07;;;1.93;;
16442;SDS011;8331;51.654;14.376;2023-04-06T11:04:00;2.70;;;2.50;;
16442;SDS011;8331;51.654;14.376;2023-04-06T11:06:28;2.50;;;2.30;;
16442;SDS011;8331;51.654;14.376;2023-04-06T11:08:56;2.60;;;2.40;;
16442;SDS011;8331;51.654;14.376;2023-04-06T11:11:23;2.23;;;2.10;;
16442;SDS011;8331;51.654;14.376;2023-04-06T11:16:19;2.53;;;2.33;;
16442;SDS011;8331;51.654;14.376;2023-04-06T11:18:56;2.67;;;2.47;;
16442;SDS011;8331;51.654;14.376;2023-04-06T11:24:04;2.60;;;2.40;;
16442;SDS011;8331;51.654;14.376;2023-04-06T11:26:30;2.57;;;2.27;;
16442;SDS011;8331;51.654;14.376;2023-04-06T11:28:57;2.70;;;2.50;;
16442;SDS011;8331;51.654;14.376;2023-04-06T11:31:26;2.53;;;2.33;;
16442;SDS011;8331;51.654;14.376;2023-04-06T11:33:56;2.60;;;2.40;;
16442;SDS011;8331;51.654;14.376;2023-04-06T11:36:23;2.50;;;2.30;;
16442;SDS011;8331;51.654;14.376;2023-04-06T11:38:50;2.53;;;2.33;;
16442;SDS011;8331;51.654;14.376;2023-04-06T11:41:16;2.70;;;2.50;;
16442;SDS011;8331;51.654;14.376;2023-04-06T11:43:47;4.13;;;2.60;;
16442;SDS011;8331;51.654;14.376;2023-04-06T11:46:17;2.37;;;2.17;;
16442;SDS011;8331;51.654;14.376;2023-04-06T11:48:44;2.93;;;2.70;;
16442;SDS011;8331;51.654;14.376;2023-04-06T11:51:11;2.83;;;2.50;;
16442;SDS011;8331;51.654;14.376;2023-04-06T11:53:44;2.77;;;2.50;;
16442;SDS011;8331;51.654;14.376;2023-04-06T11:56:27;2.43;;;2.23;;
16442;SDS011;8331;51.654;14.376;2023-04-06T11:58:54;3.00;;;2.40;;
16442;SDS011;8331;51.654;14.376;2023-04-06T12:01:21;18.33;;;16.83;;
16442;SDS011;8331;51.654;14.376;2023-04-06T12:03:48;3.40;;;3.20;;
16442;SDS011;8331;51.654;14.376;2023-04-06T12:06:15;3.40;;;3.20;;
16442;SDS011;8331;51.654;14.376;2023-04-06T12:08:42;3.03;;;2.83;;
16442;SDS011;8331;51.654;14.376;2023-04-06T12:11:09;15.50;;;12.20;;
16442;SDS011;8331;51.654;14.376;2023-04-06T12:13:36;7.47;;;6.77;;
16442;SDS011;8331;51.654;14.376;2023-04-06T12:16:02;2.67;;;2.47;;
16442;SDS011;8331;51.654;14.376;2023-04-06T12:18:29;3.03;;;2.83;;
16442;SDS011;8331;51.654;14.376;2023-04-06T12:20:56;18.90;;;12.60;;
16442;SDS011;8331;51.654;14.376;2023-04-06T12:23:23;12.40;;;10.17;;
16442;SDS011;8331;51.654;14.376;2023-04-06T12:25:50;4.93;;;3.00;;
16442;SDS011;8331;51.654;14.376;2023-04-06T12:28:16;3.90;;;3.57;;
16442;SDS011;8331;51.654;14.376;2023-04-06T12:30:44;5.50;;;4.60;;
16442;SDS011;8331;51.654;14.376;2023-04-06T12:33:10;3.30;;;3.00;;
16442;SDS011;8331;51.654;14.376;2023-04-06T12:35:37;3.07;;;2.87;;
16442;SDS011;8331;51.654;14.376;2023-04-06T12:38:05;3.10;;;2.80;;
16442;SDS011;8331;51.654;14.376;2023-04-06T12:40:35;4.00;;;3.60;;
16442;SDS011;8331;51.654;14.376;2023-04-06T12:43:02;2.50;;;2.30;;
16442;SDS011;8331;51.654;14.376;2023-04-06T12:45:30;2.60;;;2.40;;
16442;SDS011;8331;51.654;14.376;2023-04-06T12:47:56;5.93;;;5.43;;
16442;SDS011;8331;51.654;14.376;2023-04-06T12:50:23;4.20;;;3.30;;
16442;SDS011;8331;51.654;14.376;2023-04-06T12:52:50;3.00;;;2.80;;
16442;SDS011;8331;51.654;14.376;2023-04-06T12:55:16;5.30;;;4.73;;
16442;SDS011;8331;51.654;14.376;2023-04-06T12:57:44;3.20;;;3.00;;
16442;SDS011;8331;51.654;14.376;2023-04-06T13:00:11;3.00;;;2.80;;
16442;SDS011;8331;51.654;14.376;2023-04-06T13:02:38;3.07;;;2.83;;
16442;SDS011;8331;51.654;14.376;2023-04-06T13:05:05;3.87;;;2.60;;
16442;SDS011;8331;51.654;14.376;2023-04-06T13:07:32;2.90;;;2.70;;
16442;SDS011;8331;51.654;14.376;2023-04-06T13:09:59;2.60;;;2.43;;
16442;SDS011;8331;51.654;14.376;2023-04-06T13:12:25;2.63;;;2.43;;
16442;SDS011;8331;51.654;14.376;2023-04-06T13:14:53;4.20;;;3.80;;
16442;SDS011;8331;51.654;14.376;2023-04-06T13:17:20;2.90;;;2.70;;
16442;SDS011;8331;51.654;14.376;2023-04-06T13:19:47;2.90;;;2.70;;
16442;SDS011;8331;51.654;14.376;2023-04-06T13:22:14;5.20;;;4.70;;
16442;SDS011;8331;51.654;14.376;2023-04-06T13:24:41;2.53;;;2.33;;
16442;SDS011;8331;51.654;14.376;2023-04-06T13:27:09;2.90;;;2.70;;
16442;SDS011;8331;51.654;14.376;2023-04-06T13:29:35;3.13;;;2.70;;
16442;SDS011;8331;51.654;14.376;2023-04-06T13:32:03;3.47;;;3.17;;
16442;SDS011;8331;51.654;14.376;2023-04-06T13:34:30;4.10;;;3.40;;
16442;SDS011;8331;51.654;14.376;2023-04-06T13:36:57;3.77;;;3.00;;
16442;SDS011;8331;51.654;14.376;2023-04-06T13:39:23;2.40;;;2.20;;
16442;SDS011;8331;51.654;14.376;2023-04-06T13:41:52;3.30;;;3.00;;
16442;SDS011;8331;51.654;14.376;2023-04-06T13:44:19;6.60;;;5.57;;
16442;SDS011;8331;51.654;14.376;2023-04-06T13:46:46;2.93;;;2.73;;
16442;SDS011;8331;51.654;14.376;2023-04-06T13:49:13;3.70;;;3.40;;
16442;SDS011;8331;51.654;14.376;2023-04-06T13:51:39;3.30;;;3.00;;
16442;SDS011;8331;51.654;14.376;2023-04-06T13:54:06;3.20;;;3.00;;
16442;SDS011;8331;51.654;14.376;2023-04-06T13:56:33;3.67;;;3.30;;
16442;SDS011;8331;51.654;14.376;2023-04-06T13:58:59;3.67;;;3.37;;
16442;SDS011;8331;51.654;14.376;2023-04-06T14:01:26;3.33;;;3.13;;
16442;SDS011;8331;51.654;14.376;2023-04-06T14:03:53;3.10;;;2.77;;
16442;SDS011;8331;51.654;14.376;2023-04-06T14:06:19;2.83;;;2.63;;
16442;SDS011;8331;51.654;14.376;2023-04-06T14:08:57;7.00;;;6.40;;
16442;SDS011;8331;51.654;14.376;2023-04-06T14:11:23;3.10;;;2.90;;
16442;SDS011;8331;51.654;14.376;2023-04-06T14:13:50;3.10;;;2.80;;
16442;SDS011;8331;51.654;14.376;2023-04-06T14:16:17;4.10;;;3.40;;
16442;SDS011;8331;51.654;14.376;2023-04-06T14:18:46;3.30;;;3.00;;
16442;SDS011;8331;51.654;14.376;2023-04-06T14:21:12;3.13;;;2.93;;
16442;SDS011;8331;51.654;14.376;2023-04-06T14:23:39;3.90;;;3.47;;
16442;SDS011;8331;51.654;14.376;2023-04-06T14:26:06;3.60;;;3.30;;
16442;SDS011;8331;51.654;14.376;2023-04-06T14:28:33;3.50;;;3.20;;
16442;SDS011;8331;51.654;14.376;2023-04-06T14:31:01;3.40;;;3.10;;
16442;SDS011;8331;51.654;14.376;2023-04-06T14:33:29;3.90;;;3.10;;
16442;SDS011;8331;51.654;14.376;2023-04-06T14:35:56;3.10;;;2.90;;
16442;SDS011;8331;51.654;14.376;2023-04-06T14:38:23;3.33;;;3.03;;
16442;SDS011;8331;51.654;14.376;2023-04-06T14:40:49;3.97;;;3.67;;
16442;SDS011;8331;51.654;14.376;2023-04-06T14:43:16;3.57;;;3.27;;
16442;SDS011;8331;51.654;14.376;2023-04-06T14:45:43;3.57;;;3.27;;
16442;SDS011;8331;51.654;14.376;2023-04-06T14:48:09;4.07;;;3.77;;
16442;SDS011;8331;51.654;14.376;2023-04-06T14:50:41;3.47;;;3.17;;
16442;SDS011;8331;51.654;14.376;2023-04-06T14:53:12;3.60;;;3.03;;
16442;SDS011;8331;51.654;14.376;2023-04-06T14:55:39;2.63;;;2.50;;
16442;SDS011;8331;51.654;14.376;2023-04-06T14:58:07;3.63;;;3.30;;
16442;SDS011;8331;51.654;14.376;2023-04-06T15:00:34;3.80;;;3.50;;
16442;SDS011;8331;51.654;14.376;2023-04-06T15:03:00;3.90;;;3.60;;